Time;durP1;ratioP1;P1;durP2;ratioP2;P2;SDS_P1;SDS_P2;PMS_P1;PMS_P2;Temp;Humidity;BMP_temperature;BMP_pressure;BME280_temperature;BME280_humidity;BME280_pressure;Samples;Min_cycle;Max_cycle;Signal;HPM_P1;HPM_P2
2022/11/18 00:03:21;;;;;;;5.37;4.80;;;;;;;4.10;100.00;94909.34;10327424;28;20320;-79
2022/11/18 00:08:23;;;;;;;6.03;5.10;;;;;;;4.15;100.00;94916.63;10326910;28;20264;-79
2022/11/18 00:18:42;;;;;;;5.77;4.47;;;;;;;4.05;100.00;94924.53;10327081;28;20221;-79
2022/11/18 00:23:43;;;;;;;4.70;3.73;;;;;;;4.00;100.00;94931.19;10325960;28;20288;-78
2022/11/18 00:28:43;;;;;;;5.63;4.60;;;;;;;3.98;100.00;94944.28;10326704;28;20599;-78
2022/11/18 00:33:43;;;;;;;6.90;5.13;;;;;;;4.01;100.00;94943.16;10326324;28;20197;-78
2022/11/18 00:38:44;;;;;;;5.67;4.90;;;;;;;4.03;100.00;94954.19;10326342;28;20214;-78
2022/11/18 00:43:44;;;;;;;6.63;4.20;;;;;;;4.01;100.00;94949.16;10326471;28;20185;-79
2022/11/18 00:48:44;;;;;;;6.47;4.70;;;;;;;3.98;100.00;94946.88;10334081;28;20233;-78
2022/11/18 00:53:45;;;;;;;4.60;4.20;;;;;;;4.04;100.00;94943.66;10334578;28;20642;-78
2022/11/18 00:58:45;;;;;;;5.37;3.70;;;;;;;3.96;100.00;94933.25;10334682;28;20243;-79
2022/11/18 01:03:46;;;;;;;5.60;4.47;;;;;;;3.88;100.00;94928.88;10333670;28;20189;-78
2022/11/18 01:08:46;;;;;;;4.90;4.40;;;;;;;3.80;100.00;94933.22;10333764;28;20221;-79
2022/11/18 01:13:51;;;;;;;4.13;3.73;;;;;;;3.85;100.00;94931.00;10333621;28;20201;-79
2022/11/18 01:18:51;;;;;;;4.80;4.30;;;;;;;3.87;100.00;94931.63;10333042;28;20217;-78
2022/11/18 01:23:52;;;;;;;5.17;3.70;;;;;;;3.87;100.00;94932.44;10332191;28;20296;-78
2022/11/18 01:28:56;;;;;;;3.33;3.03;;;;;;;4.02;100.00;94931.81;10333532;28;20341;-78
2022/11/18 01:33:56;;;;;;;3.40;2.90;;;;;;;4.07;100.00;94938.16;10331643;28;20190;-78
2022/11/18 01:38:57;;;;;;;3.50;3.20;;;;;;;3.98;100.00;94933.09;10332849;28;20201;-79
2022/11/18 01:43:59;;;;;;;8.57;6.43;;;;;;;3.87;100.00;94934.22;10332740;28;20201;-79
2022/11/18 01:49:05;;;;;;;9.70;6.57;;;;;;;3.71;100.00;94930.63;10331348;28;20228;-78
2022/11/18 01:54:08;;;;;;;11.90;8.53;;;;;;;3.68;100.00;94943.88;10331085;28;20194;-78
2022/11/18 01:59:21;;;;;;;11.97;8.93;;;;;;;3.73;100.00;94935.66;10330514;28;20182;-78
2022/11/18 02:04:24;;;;;;;12.43;9.40;;;;;;;3.70;100.00;94938.56;10329547;28;20516;-78
2022/11/18 02:09:24;;;;;;;12.93;10.13;;;;;;;3.75;100.00;94942.31;10331647;28;20225;-78
2022/11/18 02:14:39;;;;;;;14.93;9.17;;;;;;;3.66;100.00;94945.84;10331085;28;20291;-78
2022/11/18 02:19:53;;;;;;;13.73;10.67;;;;;;;3.64;100.00;94952.94;10312655;28;20256;-79
2022/11/18 02:25:09;;;;;;;16.43;9.70;;;;;;;3.59;100.00;94957.78;10328420;28;20265;-78
2022/11/18 02:30:11;;;;;;;14.63;10.20;;;;;;;3.52;100.00;94954.19;10329787;28;20232;-78
2022/11/18 02:35:21;;;;;;;16.23;10.13;;;;;;;3.54;100.00;94957.44;10329473;28;20193;-78
2022/11/18 02:40:30;;;;;;;14.40;10.73;;;;;;;3.42;100.00;94954.31;10330862;28;20225;-78
2022/11/18 02:45:32;;;;;;;17.30;10.73;;;;;;;3.39;100.00;94954.63;10312231;28;20261;-79
2022/11/18 02:50:33;;;;;;;17.60;11.40;;;;;;;3.36;100.00;94952.38;10330531;28;20228;-79
2022/11/18 02:55:36;;;;;;;16.57;11.37;;;;;;;3.20;100.00;94955.66;10328343;28;20233;-79
2022/11/18 03:00:36;;;;;;;19.23;12.10;;;;;;;3.06;100.00;94959.63;10328739;28;20201;-79
2022/11/18 03:05:49;;;;;;;19.33;11.90;;;;;;;3.27;100.00;94961.06;10329267;28;20678;-79
2022/11/18 03:10:57;;;;;;;16.90;11.57;;;;;;;3.29;100.00;94961.69;10327430;28;20198;-79
2022/11/18 03:16:04;;;;;;;18.67;11.47;;;;;;;3.29;100.00;94961.69;10327512;28;20194;-79
2022/11/18 03:21:08;;;;;;;19.07;11.53;;;;;;;3.11;100.00;94962.59;10327429;28;20185;-79
2022/11/18 03:26:29;;;;;;;19.93;10.93;;;;;;;3.07;100.00;94960.47;10327504;28;20716;-79
2022/11/18 03:31:34;;;;;;;17.20;11.67;;;;;;;3.17;100.00;94963.75;10326918;28;20292;-79
2022/11/18 03:36:37;;;;;;;16.47;11.13;;;;;;;3.27;100.00;94972.22;10326976;28;20576;-79
2022/11/18 03:41:43;;;;;;;26.47;11.83;;;;;;;3.30;100.00;94991.81;10328285;28;20281;-79
2022/11/18 03:46:46;;;;;;;19.83;13.03;;;;;;;3.64;100.00;94996.94;10326728;28;20787;-79
2022/11/18 03:51:52;;;;;;;21.07;14.17;;;;;;;3.69;100.00;94992.13;10326893;28;20194;-79
2022/11/18 03:56:59;;;;;;;23.27;13.20;;;;;;;3.50;100.00;94985.41;10327055;28;20187;-79
2022/11/18 04:02:09;;;;;;;21.37;12.60;;;;;;;3.47;100.00;94998.66;10327665;28;20206;-79
2022/11/18 04:07:32;;;;;;;20.73;12.27;;;;;;;3.43;100.00;94997.38;10361297;28;20308;-79
2022/11/18 04:12:38;;;;;;;26.70;15.47;;;;;;;3.41;100.00;95001.06;10358559;28;20783;-79
2022/11/18 04:17:41;;;;;;;28.03;15.00;;;;;;;3.35;100.00;95005.06;10358243;28;20219;-79
2022/11/18 04:22:42;;;;;;;24.33;13.67;;;;;;;3.34;100.00;94998.31;10359643;28;20566;-80
2022/11/18 04:27:42;;;;;;;30.80;16.57;;;;;;;3.20;100.00;95003.06;10359506;28;20224;-79
2022/11/18 04:32:43;;;;;;;25.17;13.97;;;;;;;3.39;100.00;95006.41;10343140;28;20234;-79
2022/11/18 04:37:43;;;;;;;22.97;14.17;;;;;;;3.34;100.00;95008.66;10360437;28;20698;-78
2022/11/18 04:42:44;;;;;;;23.57;15.43;;;;;;;3.27;100.00;95003.25;10341882;28;20549;-78
2022/11/18 04:47:44;;;;;;;23.43;14.50;;;;;;;3.47;100.00;95011.59;10359671;28;20657;-78
2022/11/18 04:52:44;;;;;;;24.30;14.50;;;;;;;3.37;100.00;95009.16;10359988;28;20558;-78
2022/11/18 04:57:45;;;;;;;30.17;15.10;;;;;;;3.35;100.00;95012.84;10355487;28;20192;-78
2022/11/18 05:02:45;;;;;;;27.97;14.13;;;;;;;3.38;100.00;95018.53;10363436;28;20197;-77
2022/11/18 05:07:46;;;;;;;29.17;15.70;;;;;;;3.42;100.00;95021.63;10366686;28;20225;-78
2022/11/18 05:12:49;;;;;;;23.67;14.97;;;;;;;3.38;100.00;95020.31;10366807;28;20248;-78
2022/11/18 05:17:49;;;;;;;24.10;14.83;;;;;;;3.44;100.00;95024.06;10366224;28;20248;-78
2022/11/18 05:22:50;;;;;;;26.87;15.77;;;;;;;3.41;100.00;95032.94;10365689;28;20329;-76
2022/11/18 05:27:50;;;;;;;28.47;16.63;;;;;;;3.43;100.00;95035.38;10366499;28;20224;-77
2022/11/18 05:32:50;;;;;;;25.93;16.17;;;;;;;3.45;100.00;95047.19;10368184;28;20241;-78
2022/11/18 05:37:51;;;;;;;51.90;19.00;;;;;;;3.38;100.00;95059.97;10373744;28;20263;-79
2022/11/18 05:48:10;;;;;;;336.73;23.57;;;;;;;3.31;100.00;95076.25;10373644;28;20283;-78
2022/11/18 05:53:10;;;;;;;192.93;17.93;;;;;;;3.27;100.00;95073.13;10372150;28;20718;-77
2022/11/18 05:58:11;;;;;;;245.27;19.97;;;;;;;3.18;100.00;95082.59;10373555;28;20569;-76
2022/11/18 06:03:16;;;;;;;187.30;19.30;;;;;;;3.09;100.00;95080.94;10372562;28;20288;-77
2022/11/18 06:08:18;;;;;;;78.23;15.40;;;;;;;3.09;100.00;95093.88;10371056;28;20752;-77
2022/11/18 06:13:28;;;;;;;218.03;20.57;;;;;;;3.11;100.00;95109.22;10355220;28;20190;-77
2022/11/18 06:18:31;;;;;;;209.53;22.53;;;;;;;3.02;100.00;95127.28;10370210;28;20214;-78
2022/11/18 06:24:16;;;;;;;;;;;;;;;;;;;;;
2022/11/18 06:30:16;;;;;;;115.23;18.43;;;;;;;2.98;100.00;95130.31;10202977;29;20260;-78
2022/11/18 06:35:25;;;;;;;240.03;19.67;;;;;;;3.00;100.00;95128.38;10193037;29;20231;-77
2022/11/18 06:40:26;;;;;;;324.00;26.70;;;;;;;2.99;100.00;95143.09;10335246;28;20221;-77
2022/11/18 06:45:26;;;;;;;442.80;27.00;;;;;;;2.91;100.00;95139.63;10370838;28;20707;-78
2022/11/18 06:50:27;;;;;;;296.50;24.80;;;;;;;2.90;100.00;95148.38;10371624;28;20235;-77
2022/11/18 06:55:27;;;;;;;198.67;20.10;;;;;;;2.93;100.00;95148.06;10372946;28;20181;-78
2022/11/18 07:00:28;;;;;;;156.67;21.33;;;;;;;2.90;100.00;95166.47;10371194;28;20185;-78
2022/11/18 07:05:28;;;;;;;86.97;18.17;;;;;;;2.88;100.00;95163.19;10371152;28;20250;-78
2022/11/18 07:10:28;;;;;;;350.50;26.37;;;;;;;2.85;100.00;95174.69;10371881;28;20681;-78
2022/11/18 07:15:29;;;;;;;133.90;19.17;;;;;;;2.80;100.00;95176.88;10372309;28;20603;-79
2022/11/18 07:20:29;;;;;;;251.63;23.60;;;;;;;2.75;100.00;95190.22;10371776;28;20575;-78
2022/11/18 07:25:29;;;;;;;258.00;29.27;;;;;;;2.75;100.00;95190.22;10403709;28;20315;-77
2022/11/18 07:30:30;;;;;;;216.47;31.43;;;;;;;2.65;100.00;95192.09;10370270;28;20240;-77
2022/11/18 07:35:31;;;;;;;31.77;14.90;;;;;;;2.34;100.00;95197.53;10402002;28;20185;-76
2022/11/18 07:40:32;;;;;;;24.87;13.37;;;;;;;2.28;100.00;95209.28;10371838;28;20205;-78
2022/11/18 07:45:32;;;;;;;29.23;13.87;;;;;;;2.17;100.00;95206.03;10370828;28;20220;-78
2022/11/18 07:50:33;;;;;;;27.37;15.17;;;;;;;2.11;100.00;95203.09;10369765;28;20251;-77
2022/11/18 07:55:33;;;;;;;29.57;14.17;;;;;;;2.11;100.00;95213.41;10361327;28;20190;-78
2022/11/18 08:00:33;;;;;;;27.00;14.13;;;;;;;2.17;100.00;95216.38;10366765;28;20192;-78
2022/11/18 08:05:34;;;;;;;26.77;13.17;;;;;;;2.22;100.00;95215.00;10368023;28;20217;-76
2022/11/18 08:10:34;;;;;;;21.07;11.80;;;;;;;2.22;100.00;95211.59;10368456;28;20188;-77
2022/11/18 08:15:39;;;;;;;23.77;13.47;;;;;;;2.24;100.00;95214.88;10368770;28;20653;-78
2022/11/18 08:21:34;;;;;;;24.47;12.43;;;;;;;2.09;100.00;95224.84;10368384;28;20687;-79
2022/11/18 08:26:35;;;;;;;20.57;11.07;;;;;;;1.99;100.00;95219.72;10367629;28;20590;-77
2022/11/18 08:31:35;;;;;;;20.50;10.43;;;;;;;1.84;100.00;95221.91;10366054;28;20240;-78
2022/11/18 08:36:36;;;;;;;17.40;9.93;;;;;;;1.67;100.00;95215.69;10367718;28;20221;-78
2022/11/18 08:41:39;;;;;;;15.37;9.43;;;;;;;1.58;100.00;95214.75;10369377;28;20189;-77
2022/11/18 08:46:40;;;;;;;12.50;8.47;;;;;;;1.52;100.00;95217.09;10374140;28;20319;-77
2022/11/18 08:51:41;;;;;;;13.87;8.40;;;;;;;1.53;100.00;95210.94;10367400;28;20239;-77
2022/11/18 08:56:41;;;;;;;12.23;8.00;;;;;;;1.48;100.00;95205.41;10367416;28;20203;-77
2022/11/18 09:01:42;;;;;;;13.77;9.10;;;;;;;1.60;100.00;95206.88;10374735;28;20708;-75
2022/11/18 09:06:42;;;;;;;13.17;8.37;;;;;;;1.66;100.00;95192.59;10391494;28;20228;-76
2022/11/18 09:11:43;;;;;;;13.33;9.27;;;;;;;1.62;100.00;95191.25;10415856;28;20200;-74
2022/11/18 09:16:43;;;;;;;16.70;10.67;;;;;;;1.65;100.00;95186.63;10414546;28;20299;-74
2022/11/18 09:21:43;;;;;;;21.10;10.33;;;;;;;1.50;100.00;95193.16;10412786;28;20237;-75
2022/11/18 09:26:44;;;;;;;112.57;14.80;;;;;;;1.30;100.00;95198.34;10411816;28;20219;-74
2022/11/18 09:31:45;;;;;;;55.50;13.53;;;;;;;1.08;100.00;95212.34;10411323;28;20274;-76
2022/11/18 09:36:45;;;;;;;37.13;11.33;;;;;;;0.94;100.00;95228.22;10380142;28;20219;-75
2022/11/18 09:42:23;;;;;;;13.83;9.07;;;;;;;0.84;100.00;95236.75;10367313;28;20243;-75
2022/11/18 09:47:31;;;;;;;16.97;10.13;;;;;;;0.64;100.00;95237.63;10331809;28;20268;-75
2022/11/18 09:53:00;;;;;;;20.77;10.77;;;;;;;0.68;100.00;95244.97;10330714;28;20198;-76
2022/11/18 09:58:00;;;;;;;36.33;11.47;;;;;;;0.71;100.00;95244.72;10338142;28;20196;-77
2022/11/18 10:03:03;;;;;;;34.53;12.57;;;;;;;0.68;100.00;95236.44;10369941;28;20211;-76
2022/11/18 10:08:22;;;;;;;182.97;19.70;;;;;;;0.58;100.00;95246.69;10368654;28;20224;-75
2022/11/18 10:14:00;;;;;;;138.93;20.63;;;;;;;0.59;100.00;95248.34;10370461;28;20187;-76
2022/11/18 10:19:22;;;;;;;303.33;23.97;;;;;;;0.55;100.00;95261.63;10369934;28;20200;-76
2022/11/18 10:24:55;;;;;;;221.77;24.20;;;;;;;0.42;100.00;95267.81;10370272;28;20281;-75
2022/11/18 10:29:56;;;;;;;209.93;28.07;;;;;;;0.37;100.00;95275.13;10325454;28;20319;-75
2022/11/18 10:34:57;;;;;;;538.10;40.37;;;;;;;0.14;100.00;95277.84;10370115;28;20669;-76
2022/11/18 10:40:03;;;;;;;359.60;35.53;;;;;;;0.05;100.00;95275.25;10369337;28;20297;-75
2022/11/18 10:45:22;;;;;;;177.83;26.87;;;;;;;0.16;100.00;95286.25;10365406;28;20211;-76
2022/11/18 10:50:49;;;;;;;220.90;29.43;;;;;;;-0.08;100.00;95294.25;10364808;28;20221;-76
2022/11/18 10:55:57;;;;;;;303.87;31.83;;;;;;;-0.10;100.00;95306.44;10362653;28;20643;-76
2022/11/18 11:01:06;;;;;;;179.70;25.60;;;;;;;-0.19;100.00;95309.75;10347610;28;20225;-76
2022/11/18 11:06:25;;;;;;;342.73;34.63;;;;;;;-0.34;100.00;95316.16;10366151;28;20296;-77
2022/11/18 11:11:38;;;;;;;175.87;25.00;;;;;;;-0.51;100.00;95328.63;10363085;28;20368;-76
2022/11/18 11:17:05;;;;;;;96.40;22.47;;;;;;;-0.56;100.00;95334.13;10363941;28;20344;-76
2022/11/18 11:22:10;;;;;;;79.40;22.97;;;;;;;-0.57;100.00;95347.09;10329240;28;20295;-75
2022/11/18 11:27:23;;;;;;;62.40;21.60;;;;;;;-0.63;100.00;95355.31;10324931;28;20225;-76
2022/11/18 11:32:27;;;;;;;51.97;22.80;;;;;;;-0.57;100.00;95349.69;10325168;28;20272;-74
2022/11/18 11:38:04;;;;;;;35.77;17.97;;;;;;;-0.66;100.00;95352.97;10332642;28;20697;-76
2022/11/18 11:50:12;;;;;;;31.43;13.30;;;;;;;-0.85;100.00;95351.84;10405197;28;20221;-76
2022/11/18 11:55:28;;;;;;;30.63;17.90;;;;;;;-0.77;100.00;95346.91;10403321;28;20190;-76
2022/11/18 12:00:38;;;;;;;17.80;10.20;;;;;;;-0.83;100.00;95355.13;10405650;28;20673;-76
2022/11/18 12:05:41;;;;;;;21.13;10.90;;;;;;;-0.94;100.00;95353.38;10405411;28;20227;-76
2022/11/18 12:10:50;;;;;;;22.00;12.97;;;;;;;-0.90;100.00;95365.06;10411195;28;20594;-75
2022/11/18 12:16:00;;;;;;;17.07;10.43;;;;;;;-0.94;100.00;95360.28;10372972;28;20205;-76
2022/11/18 12:21:01;;;;;;;24.27;12.00;;;;;;;-0.84;100.00;95363.78;10388579;28;20192;-76
2022/11/18 12:26:06;;;;;;;17.80;11.40;;;;;;;-0.92;100.00;95366.94;10405692;28;20584;-76
2022/11/18 12:31:16;;;;;;;12.60;7.90;;;;;;;-1.09;100.00;95365.69;10389018;28;20229;-76
2022/11/18 12:36:31;;;;;;;14.97;9.07;;;;;;;-1.03;100.00;95372.09;10406322;28;20215;-76
2022/11/18 12:47:01;;;;;;;19.50;10.43;;;;;;;-1.15;100.00;95366.16;10405003;28;20708;-76
2022/11/18 12:52:03;;;;;;;27.53;14.33;;;;;;;-1.20;100.00;95373.38;10388578;28;20271;-76
2022/11/18 12:57:20;;;;;;;32.47;17.30;;;;;;;-1.18;100.00;95376.69;10372188;28;20184;-76
2022/11/18 13:02:23;;;;;;;42.13;21.93;;;;;;;-1.31;100.00;95381.09;10372276;28;20650;-76
2022/11/18 13:12:44;;;;;;;52.03;26.27;;;;;;;-1.57;100.00;95398.47;10373655;28;20211;-76
2022/11/18 13:17:50;;;;;;;47.43;25.03;;;;;;;-1.65;100.00;95396.50;10371278;28;20197;-76
2022/11/18 13:28:32;;;;;;;49.63;26.07;;;;;;;-1.75;100.00;95388.63;10390718;28;20217;-75
2022/11/18 13:33:38;;;;;;;50.43;28.77;;;;;;;-1.78;100.00;95403.44;10389046;28;20204;-75
2022/11/18 13:38:40;;;;;;;47.57;26.90;;;;;;;-1.87;100.00;95404.94;10389431;28;20216;-75
2022/11/18 13:43:41;;;;;;;47.90;27.37;;;;;;;-1.88;100.00;95409.25;10388360;28;20188;-75
2022/11/18 13:54:54;;;;;;;54.37;28.23;;;;;;;-1.91;100.00;95409.50;10397997;28;20262;-75
2022/11/18 14:00:01;;;;;;;47.50;24.83;;;;;;;-1.95;100.00;95428.59;10395835;28;20235;-76
2022/11/18 14:05:02;;;;;;;50.30;26.33;;;;;;;-2.12;100.00;95424.69;10393653;28;20576;-75
2022/11/18 14:10:42;;;;;;;54.97;28.60;;;;;;;-2.03;100.00;95438.59;10414935;28;20215;-75
2022/11/18 14:16:00;;;;;;;49.10;26.57;;;;;;;-2.19;100.00;95444.00;10428099;28;20200;-73
2022/11/18 14:21:03;;;;;;;51.30;28.30;;;;;;;-2.34;100.00;95449.31;10417918;28;20187;-74
2022/11/18 14:26:05;;;;;;;47.90;26.00;;;;;;;-2.24;100.00;95461.47;10417482;28;20825;-75
2022/11/18 14:31:11;;;;;;;51.03;27.80;;;;;;;-2.46;100.00;95462.19;10411174;28;20232;-75
2022/11/18 14:36:16;;;;;;;45.63;25.43;;;;;;;-2.59;100.00;95460.47;10411173;28;20239;-75
2022/11/18 14:46:37;;;;;;;47.47;27.17;;;;;;;-2.77;100.00;95469.41;10412236;28;20220;-74
2022/11/18 14:51:37;;;;;;;51.70;27.83;;;;;;;-2.94;100.00;95476.53;10410572;28;20207;-75
2022/11/18 14:56:38;;;;;;;55.30;29.90;;;;;;;-3.11;100.00;95484.53;10426987;28;20184;-75
2022/11/18 15:01:39;;;;;;;53.30;29.53;;;;;;;-3.10;100.00;95491.31;10422623;28;20207;-75
2022/11/18 15:06:39;;;;;;;49.60;28.40;;;;;;;-3.11;100.00;95503.28;10411196;28;20307;-75
2022/11/18 15:11:40;;;;;;;50.40;27.83;;;;;;;-3.28;100.00;95503.59;10393428;28;20192;-76
2022/11/18 15:16:40;;;;;;;50.13;29.17;;;;;;;-3.36;100.00;95504.09;10411524;28;20193;-76
2022/11/18 15:21:41;;;;;;;55.47;30.80;;;;;;;-3.30;100.00;95506.25;10411176;28;20666;-76
2022/11/18 15:26:44;;;;;;;57.60;30.27;;;;;;;-3.27;100.00;95511.16;10409703;28;20259;-74
2022/11/18 15:31:45;;;;;;;61.10;32.33;;;;;;;-3.30;100.00;95510.56;10410446;28;20266;-75
2022/11/18 15:36:45;;;;;;;60.37;33.17;;;;;;;-3.44;100.00;95522.53;10417158;28;20211;-75
2022/11/18 15:41:46;;;;;;;58.23;30.50;;;;;;;-3.30;100.00;95515.69;10451163;28;20648;-75
2022/11/18 15:46:46;;;;;;;60.10;32.27;;;;;;;-3.21;100.00;95527.06;10419705;28;20662;-75
2022/11/18 15:51:47;;;;;;;59.50;31.97;;;;;;;-3.36;100.00;95539.13;10368875;28;20642;-75
2022/11/18 15:56:48;;;;;;;61.97;33.73;;;;;;;-3.41;100.00;95540.25;10367424;28;20251;-75
2022/11/18 16:01:48;;;;;;;67.13;34.77;;;;;;;-3.34;100.00;95552.63;10397691;28;20686;-75
2022/11/18 16:06:48;;;;;;;64.60;34.60;;;;;;;-3.35;100.00;95556.94;10408250;28;20235;-75
2022/11/18 16:17:29;;;;;;;65.30;34.57;;;;;;;-3.51;100.00;95566.53;10409020;28;20249;-73
2022/11/18 16:22:40;;;;;;;64.33;34.97;;;;;;;-3.49;100.00;95574.94;10405405;28;20220;-74
2022/11/18 16:27:45;;;;;;;60.43;34.47;;;;;;;-3.56;100.00;95591.63;10408983;28;20316;-74
2022/11/18 16:33:10;;;;;;;59.73;32.80;;;;;;;-3.61;100.00;95599.59;10406693;28;20279;-73
2022/11/18 16:38:12;;;;;;;61.03;31.83;;;;;;;-3.50;100.00;95611.72;10408325;28;20216;-74
2022/11/18 16:43:12;;;;;;;64.37;33.77;;;;;;;-3.50;100.00;95601.47;10436110;28;20246;-75
2022/11/18 16:48:12;;;;;;;61.70;32.83;;;;;;;-3.44;100.00;95606.19;10449263;28;20627;-75
2022/11/18 16:53:13;;;;;;;65.47;33.50;;;;;;;-3.48;100.00;95614.97;10429791;28;20192;-75
2022/11/18 16:58:13;;;;;;;66.00;32.57;;;;;;;-3.47;100.00;95617.44;10407953;28;20337;-75
2022/11/18 17:03:14;;;;;;;72.00;35.83;;;;;;;-3.55;100.00;95618.84;10405359;28;20195;-75
2022/11/18 17:08:14;;;;;;;66.27;32.23;;;;;;;-3.53;100.00;95622.94;10405221;28;20212;-75
2022/11/18 17:13:15;;;;;;;67.37;33.10;;;;;;;-3.64;100.00;95620.25;10405750;28;20188;-75
2022/11/18 17:18:15;;;;;;;66.10;32.40;;;;;;;-3.55;100.00;95629.06;10406244;28;20192;-74
2022/11/18 17:23:15;;;;;;;63.77;33.20;;;;;;;-3.55;100.00;95639.31;10410044;28;20288;-75
2022/11/18 17:28:16;;;;;;;60.00;29.83;;;;;;;-3.56;100.00;95645.38;10416263;28;20495;-75
2022/11/18 17:33:17;;;;;;;64.57;31.37;;;;;;;-3.66;100.00;95653.63;10422858;28;20228;-73
2022/11/18 17:38:17;;;;;;;61.40;30.90;;;;;;;-3.79;100.00;95648.44;10414629;28;20200;-74
2022/11/18 17:43:18;;;;;;;60.60;30.13;;;;;;;-3.64;100.00;95654.34;10396359;28;20645;-74
2022/11/18 17:48:19;;;;;;;56.30;30.10;;;;;;;-3.66;100.00;95666.44;10414134;28;20593;-74
2022/11/18 17:53:19;;;;;;;59.53;30.17;;;;;;;-3.80;100.00;95679.22;10396499;28;20193;-74
2022/11/18 17:58:20;;;;;;;59.67;29.63;;;;;;;-3.75;100.00;95690.03;10395465;28;20192;-74
2022/11/18 18:03:20;;;;;;;66.07;31.33;;;;;;;-3.86;100.00;95705.19;10413729;28;20196;-75
2022/11/18 18:08:21;;;;;;;57.20;31.23;;;;;;;-3.77;100.00;95704.63;10395972;28;20224;-75
2022/11/18 18:18:40;;;;;;;55.10;27.97;;;;;;;-3.89;100.00;95700.25;10397252;28;20188;-75
2022/11/18 18:23:40;;;;;;;55.60;28.80;;;;;;;-3.84;100.00;95703.38;10411549;28;20184;-75
2022/11/18 18:28:41;;;;;;;53.17;26.33;;;;;;;-3.90;100.00;95719.09;10411374;28;20227;-75
2022/11/18 18:33:42;;;;;;;62.33;29.00;;;;;;;-3.98;100.00;95714.41;10393009;28;20206;-75
2022/11/18 18:38:43;;;;;;;51.47;24.37;;;;;;;-4.11;100.00;95714.34;10392419;28;20215;-74
2022/11/18 18:43:44;;;;;;;50.00;24.40;;;;;;;-3.92;100.00;95736.25;10410226;28;20192;-74
2022/11/18 18:48:45;;;;;;;49.47;24.07;;;;;;;-3.95;100.00;95727.88;10393404;28;20300;-74
2022/11/18 18:53:45;;;;;;;45.57;22.33;;;;;;;-3.90;100.00;95730.16;10384972;28;20188;-74
2022/11/18 18:58:46;;;;;;;43.63;21.30;;;;;;;-3.95;100.00;95727.88;10392317;28;20275;-74
2022/11/18 19:03:47;;;;;;;46.27;23.13;;;;;;;-4.00;100.00;95737.53;10392177;28;20657;-75
2022/11/18 19:08:48;;;;;;;37.90;19.67;;;;;;;-4.04;100.00;95746.31;10410019;28;20215;-75
2022/11/18 19:13:48;;;;;;;41.70;21.70;;;;;;;-4.00;100.00;95746.94;10409297;28;20200;-73
2022/11/18 19:18:48;;;;;;;40.97;20.77;;;;;;;-3.99;100.00;95748.59;10409936;28;20188;-74
2022/11/18 19:23:49;;;;;;;42.57;19.03;;;;;;;-4.02;100.00;95764.13;10408756;28;20200;-74
2022/11/18 19:28:49;;;;;;;34.93;18.13;;;;;;;-3.89;100.00;95752.28;10408708;28;20499;-73
2022/11/18 19:33:50;;;;;;;37.43;17.60;;;;;;;-4.00;100.00;95759.75;10408564;28;20201;-74
2022/11/18 19:38:50;;;;;;;33.70;17.13;;;;;;;-4.01;100.00;95761.50;10407716;28;20211;-74
2022/11/18 19:43:51;;;;;;;32.60;17.60;;;;;;;-3.97;100.00;95774.91;10390722;28;20204;-74
2022/11/18 19:48:51;;;;;;;31.37;15.43;;;;;;;-4.02;100.00;95767.50;10408098;28;20227;-74
2022/11/18 19:53:51;;;;;;;33.23;17.13;;;;;;;-4.03;100.00;95773.53;10407561;28;20196;-74
2022/11/18 19:58:53;;;;;;;28.40;15.83;;;;;;;-4.04;100.00;95786.41;10408120;28;20189;-74
2022/11/18 20:03:58;;;;;;;26.13;14.23;;;;;;;-4.04;100.00;95776.19;10407462;28;20563;-75
2022/11/18 20:08:58;;;;;;;28.03;14.80;;;;;;;-4.04;100.00;95786.41;10407129;28;20688;-75
2022/11/18 20:13:59;;;;;;;25.37;14.00;;;;;;;-4.15;100.00;95785.31;10407168;28;20196;-75
2022/11/18 20:19:00;;;;;;;23.83;13.23;;;;;;;-4.19;100.00;95788.97;10407919;28;20195;-73
2022/11/18 20:24:03;;;;;;;20.93;12.63;;;;;;;-4.18;100.00;95787.22;10374883;28;20222;-72
2022/11/18 20:29:05;;;;;;;21.40;12.03;;;;;;;-4.23;100.00;95787.47;10420947;28;20254;-75
2022/11/18 20:34:05;;;;;;;19.53;11.23;;;;;;;-4.20;100.00;95799.28;10409880;28;20210;-74
2022/11/18 20:39:11;;;;;;;17.83;11.07;;;;;;;-4.32;100.00;95788.84;10415979;28;20212;-73
2022/11/18 20:44:11;;;;;;;21.57;11.90;;;;;;;-4.33;100.00;95801.72;10404417;28;20287;-75
2022/11/18 20:49:12;;;;;;;19.13;11.23;;;;;;;-4.34;100.00;95805.19;10413319;28;20219;-74
2022/11/18 20:54:12;;;;;;;20.00;11.67;;;;;;;-4.41;100.00;95804.72;10408814;28;20586;-75
2022/11/18 20:59:12;;;;;;;17.07;10.67;;;;;;;-4.42;100.00;95823.53;10406578;28;20582;-74
2022/11/18 21:04:13;;;;;;;14.50;9.53;;;;;;;-4.38;100.00;95830.13;10411926;28;20207;-74
2022/11/18 21:09:13;;;;;;;15.23;10.10;;;;;;;-4.46;100.00;95829.69;10414021;28;20224;-73
2022/11/18 21:14:17;;;;;;;17.20;10.37;;;;;;;-4.44;100.00;95833.03;10398971;28;20199;-75
2022/11/18 21:19:17;;;;;;;16.07;9.60;;;;;;;-4.51;100.00;95829.16;10415415;28;20219;-73
2022/11/18 21:24:22;;;;;;;16.17;10.23;;;;;;;-4.43;100.00;95834.66;10412988;28;20207;-72
2022/11/18 21:29:26;;;;;;;16.07;9.10;;;;;;;-4.52;100.00;95827.50;10396332;28;20231;-73
2022/11/18 21:34:26;;;;;;;21.73;10.00;;;;;;;-4.57;100.00;95834.59;10413372;28;20200;-74
2022/11/18 21:39:30;;;;;;;16.77;10.20;;;;;;;-4.58;100.00;95843.16;10412556;28;20208;-74
2022/11/18 21:44:34;;;;;;;16.53;10.43;;;;;;;-4.56;100.00;95843.94;10412828;28;20215;-73
2022/11/18 21:49:34;;;;;;;16.10;9.80;;;;;;;-4.54;100.00;95844.66;10394876;28;20243;-75
2022/11/18 21:54:35;;;;;;;20.03;10.97;;;;;;;-4.61;100.00;95863.78;10414016;28;20283;-74
2022/11/18 21:59:35;;;;;;;17.27;10.33;;;;;;;-4.66;100.00;95869.16;10395749;28;20180;-74
2022/11/18 22:04:51;;;;;;;15.17;9.57;;;;;;;-4.70;100.00;95873.63;10413017;28;20197;-74
2022/11/18 22:09:53;;;;;;;15.33;9.83;;;;;;;-4.63;100.00;95875.84;10413570;28;20215;-73
2022/11/18 22:14:54;;;;;;;15.87;10.27;;;;;;;-4.76;100.00;95868.00;10412610;28;20196;-73
2022/11/18 22:19:54;;;;;;;13.83;9.10;;;;;;;-4.71;100.00;95859.19;10395091;28;20187;-73
2022/11/18 22:24:55;;;;;;;16.53;10.23;;;;;;;-4.77;100.00;95868.94;10412670;28;20220;-74
2022/11/18 22:29:55;;;;;;;16.97;10.43;;;;;;;-4.69;100.00;95867.56;10394436;28;20316;-74
2022/11/18 22:34:55;;;;;;;14.67;9.67;;;;;;;-4.82;100.00;95881.94;10412064;28;20562;-73
2022/11/18 22:39:56;;;;;;;16.27;8.97;;;;;;;-4.85;100.00;95882.13;10411933;28;20211;-74
2022/11/18 22:44:56;;;;;;;15.80;9.50;;;;;;;-4.80;100.00;95885.22;10411763;28;20195;-73
2022/11/18 22:49:56;;;;;;;17.77;9.67;;;;;;;-4.77;100.00;95894.47;10411819;28;20220;-74
2022/11/18 22:54:57;;;;;;;14.37;9.40;;;;;;;-4.90;100.00;95896.84;10411622;28;20671;-74
2022/11/18 22:59:57;;;;;;;14.57;9.57;;;;;;;-4.89;100.00;95899.31;10411600;28;20591;-72
2022/11/18 23:04:57;;;;;;;15.97;9.80;;;;;;;-4.86;100.00;95908.56;10410819;28;20196;-74
2022/11/18 23:09:59;;;;;;;17.00;10.50;;;;;;;-4.88;100.00;95916.31;10411991;28;20227;-74
2022/11/18 23:14:59;;;;;;;14.07;9.50;;;;;;;-4.92;100.00;95922.47;10392727;28;20203;-73
2022/11/18 23:20:00;;;;;;;16.23;10.47;;;;;;;-5.02;100.00;95932.34;10393460;28;20614;-75
2022/11/18 23:25:00;;;;;;;19.97;10.97;;;;;;;-4.98;100.00;95922.78;10392034;28;20220;-74
2022/11/18 23:30:00;;;;;;;20.33;11.77;;;;;;;-4.81;100.00;95934.66;10410426;28;20232;-72
2022/11/18 23:35:01;;;;;;;17.10;10.80;;;;;;;-4.88;100.00;95936.75;10409656;28;20659;-72
2022/11/18 23:40:01;;;;;;;19.67;11.03;;;;;;;-4.85;100.00;95928.09;10410038;28;20329;-75
2022/11/18 23:45:02;;;;;;;19.57;11.13;;;;;;;-4.75;100.00;95934.34;10409537;28;20207;-74
2022/11/18 23:50:02;;;;;;;20.37;11.43;;;;;;;-4.81;100.00;95923.63;10409219;28;20310;-72
2022/11/18 23:55:03;;;;;;;19.47;11.53;;;;;;;-4.85;100.00;95933.22;10409563;28;20666;-75
